sensor_id;sensor_type;location;lat;lon;timestamp;pressure;altitude;pressure_sealevel;temperature;humidity
39105;BME280;46464;51.154;13.812;2022-10-31T00:00:56;99686.25;;;9.46;100.00
39105;BME280;46464;51.154;13.812;2022-10-31T00:03:23;99681.03;;;9.43;100.00
39105;BME280;46464;51.154;13.812;2022-10-31T00:05:49;99673.13;;;9.39;100.00
39105;BME280;46464;51.154;13.812;2022-10-31T00:08:16;99683.00;;;9.38;100.00
39105;BME280;46464;51.154;13.812;2022-10-31T00:10:46;99683.94;;;9.37;100.00
39105;BME280;46464;51.154;13.812;2022-10-31T00:13:14;99685.75;;;9.36;100.00
39105;BME280;46464;51.154;13.812;2022-10-31T00:15:44;99688.38;;;9.38;100.00
39105;BME280;46464;51.154;13.812;2022-10-31T00:18:14;99675.75;;;9.40;100.00
39105;BME280;46464;51.154;13.812;2022-10-31T00:20:40;99685.47;;;9.44;100.00
39105;BME280;46464;51.154;13.812;2022-10-31T00:23:07;99680.94;;;9.45;100.00
39105;BME280;46464;51.154;13.812;2022-10-31T00:25:34;99685.41;;;9.46;100.00
39105;BME280;46464;51.154;13.812;2022-10-31T00:28:02;99683.63;;;9.45;100.00
39105;BME280;46464;51.154;13.812;2022-10-31T00:30:29;99689.91;;;9.45;100.00
39105;BME280;46464;51.154;13.812;2022-10-31T00:32:57;99686.38;;;9.43;100.00
39105;BME280;46464;51.154;13.812;2022-10-31T00:35:24;99690.00;;;9.42;100.00
39105;BME280;46464;51.154;13.812;2022-10-31T00:37:51;99687.31;;;9.42;100.00
39105;BME280;46464;51.154;13.812;2022-10-31T00:40:18;99690.06;;;9.41;100.00
39105;BME280;46464;51.154;13.812;2022-10-31T00:42:44;99694.53;;;9.40;100.00
39105;BME280;46464;51.154;13.812;2022-10-31T00:45:10;99686.56;;;9.39;100.00
39105;BME280;46464;51.154;13.812;2022-10-31T00:47:37;99694.59;;;9.39;100.00
39105;BME280;46464;51.154;13.812;2022-10-31T00:50:04;99691.13;;;9.36;100.00
39105;BME280;46464;51.154;13.812;2022-10-31T00:52:31;99692.22;;;9.31;100.00
39105;BME280;46464;51.154;13.812;2022-10-31T00:54:57;99692.44;;;9.25;100.00
39105;BME280;46464;51.154;13.812;2022-10-31T00:57:24;99695.28;;;9.20;100.00
39105;BME280;46464;51.154;13.812;2022-10-31T00:59:50;99690.91;;;9.17;100.00
39105;BME280;46464;51.154;13.812;2022-10-31T01:02:16;99692.88;;;9.12;100.00
39105;BME280;46464;51.154;13.812;2022-10-31T01:04:43;99694.78;;;9.09;100.00
39105;BME280;46464;51.154;13.812;2022-10-31T01:07:10;99693.03;;;9.08;100.00
39105;BME280;46464;51.154;13.812;2022-10-31T01:09:38;99694.03;;;9.05;100.00
39105;BME280;46464;51.154;13.812;2022-10-31T01:12:04;99692.25;;;9.06;100.00
39105;BME280;46464;51.154;13.812;2022-10-31T01:14:31;99694.09;;;9.03;100.00
39105;BME280;46464;51.154;13.812;2022-10-31T01:16:57;99703.06;;;9.02;100.00
39105;BME280;46464;51.154;13.812;2022-10-31T01:19:24;99697.81;;;8.99;100.00
39105;BME280;46464;51.154;13.812;2022-10-31T01:21:50;99697.81;;;8.99;100.00
39105;BME280;46464;51.154;13.812;2022-10-31T01:24:19;99704.09;;;8.98;100.00
39105;BME280;46464;51.154;13.812;2022-10-31T01:26:46;99700.53;;;8.98;100.00
39105;BME280;46464;51.154;13.812;2022-10-31T01:29:12;99701.41;;;8.98;100.00
39105;BME280;46464;51.154;13.812;2022-10-31T01:31:39;99699.72;;;8.96;100.00
39105;BME280;46464;51.154;13.812;2022-10-31T01:34:06;99702.34;;;8.97;100.00
39105;BME280;46464;51.154;13.812;2022-10-31T01:36:33;99704.03;;;9.00;100.00
39105;BME280;46464;51.154;13.812;2022-10-31T01:39:01;99708.41;;;9.02;100.00
39105;BME280;46464;51.154;13.812;2022-10-31T01:41:31;99699.50;;;9.02;100.00
39105;BME280;46464;51.154;13.812;2022-10-31T01:43:59;99702.19;;;9.02;100.00
39105;BME280;46464;51.154;13.812;2022-10-31T01:51:46;99707.34;;;9.07;100.00
39105;BME280;46464;51.154;13.812;2022-10-31T01:54:14;99710.03;;;9.07;100.00
39105;BME280;46464;51.154;13.812;2022-10-31T01:56:42;99709.25;;;9.04;100.00
39105;BME280;46464;51.154;13.812;2022-10-31T01:59:10;99706.50;;;9.06;100.00
39105;BME280;46464;51.154;13.812;2022-10-31T02:01:37;99704.69;;;9.07;100.00
39105;BME280;46464;51.154;13.812;2022-10-31T02:04:04;99702.00;;;9.07;100.00
39105;BME280;46464;51.154;13.812;2022-10-31T02:06:45;99701.03;;;9.09;100.00
39105;BME280;46464;51.154;13.812;2022-10-31T02:09:13;99698.38;;;9.09;100.00
39105;BME280;46464;51.154;13.812;2022-10-31T02:11:40;99705.44;;;9.10;100.00
39105;BME280;46464;51.154;13.812;2022-10-31T02:14:07;99707.31;;;9.08;100.00
39105;BME280;46464;51.154;13.812;2022-10-31T02:16:33;99708.25;;;9.07;100.00
39105;BME280;46464;51.154;13.812;2022-10-31T02:19:00;99699.31;;;9.07;100.00
39105;BME280;46464;51.154;13.812;2022-10-31T02:21:36;99704.81;;;9.03;100.00
39105;BME280;46464;51.154;13.812;2022-10-31T02:24:16;99704.69;;;9.07;100.00
39105;BME280;46464;51.154;13.812;2022-10-31T02:31:57;99711.47;;;9.17;100.00
39105;BME280;46464;51.154;13.812;2022-10-31T02:34:30;99716.72;;;9.20;100.00
39105;BME280;46464;51.154;13.812;2022-10-31T02:42:09;99722.03;;;9.22;100.00
39105;BME280;46464;51.154;13.812;2022-10-31T02:44:42;99722.03;;;9.22;100.00
39105;BME280;46464;51.154;13.812;2022-10-31T02:47:12;99724.66;;;9.23;100.00
39105;BME280;46464;51.154;13.812;2022-10-31T02:49:45;99720.16;;;9.24;100.00
39105;BME280;46464;51.154;13.812;2022-10-31T02:52:20;99724.66;;;9.23;100.00
39105;BME280;46464;51.154;13.812;2022-10-31T02:58:15;99728.34;;;9.20;100.00
39105;BME280;46464;51.154;13.812;2022-10-31T03:09:03;99733.72;;;9.19;100.00
39105;BME280;46464;51.154;13.812;2022-10-31T03:11:37;99733.69;;;9.20;100.00
39105;BME280;46464;51.154;13.812;2022-10-31T03:14:10;99732.81;;;9.20;100.00
39105;BME280;46464;51.154;13.812;2022-10-31T03:16:47;99731.16;;;9.16;100.00
39105;BME280;46464;51.154;13.812;2022-10-31T03:21:43;99734.28;;;9.03;100.00
39105;BME280;46464;51.154;13.812;2022-10-31T03:24:11;99734.50;;;8.97;100.00
39105;BME280;46464;51.154;13.812;2022-10-31T03:26:41;99743.53;;;8.95;100.00
39105;BME280;46464;51.154;13.812;2022-10-31T03:29:10;99734.72;;;8.91;100.00
39105;BME280;46464;51.154;13.812;2022-10-31T03:31:39;99734.78;;;8.90;100.00
39105;BME280;46464;51.154;13.812;2022-10-31T03:34:08;99737.47;;;8.88;100.00
39105;BME280;46464;51.154;13.812;2022-10-31T03:36:36;99733.94;;;8.87;100.00
39105;BME280;46464;51.154;13.812;2022-10-31T03:39:05;99739.22;;;8.91;100.00
39105;BME280;46464;51.154;13.812;2022-10-31T03:41:35;99744.44;;;8.94;100.00
39105;BME280;46464;51.154;13.812;2022-10-31T03:44:06;99735.34;;;8.98;100.00
39105;BME280;46464;51.154;13.812;2022-10-31T03:46:34;99746.00;;;9.01;100.00
39105;BME280;46464;51.154;13.812;2022-10-31T03:49:01;99743.38;;;8.99;100.00
39105;BME280;46464;51.154;13.812;2022-10-31T03:51:30;99755.72;;;9.03;100.00
39105;BME280;46464;51.154;13.812;2022-10-31T03:54:12;99750.38;;;9.03;100.00
39105;BME280;46464;51.154;13.812;2022-10-31T03:56:42;99749.44;;;9.04;100.00
39105;BME280;46464;51.154;13.812;2022-10-31T03:59:11;99745.78;;;9.07;100.00
39105;BME280;46464;51.154;13.812;2022-10-31T04:01:41;99749.22;;;9.11;100.00
39105;BME280;46464;51.154;13.812;2022-10-31T04:04:09;99757.31;;;9.09;100.00
39105;BME280;46464;51.154;13.812;2022-10-31T04:06:36;99753.81;;;9.07;100.00
39105;BME280;46464;51.154;13.812;2022-10-31T04:09:04;99757.41;;;9.06;100.00
39105;BME280;46464;51.154;13.812;2022-10-31T04:11:34;99756.66;;;9.02;100.00
39105;BME280;46464;51.154;13.812;2022-10-31T04:14:02;99766.31;;;9.07;100.00
39105;BME280;46464;51.154;13.812;2022-10-31T04:16:30;99754.66;;;9.09;100.00
39105;BME280;46464;51.154;13.812;2022-10-31T04:18:56;99751.84;;;9.12;100.00
39105;BME280;46464;51.154;13.812;2022-10-31T04:21:27;99755.34;;;9.14;100.00
39105;BME280;46464;51.154;13.812;2022-10-31T04:23:54;99760.75;;;9.13;100.00
39105;BME280;46464;51.154;13.812;2022-10-31T04:26:21;99754.53;;;9.12;100.00
39105;BME280;46464;51.154;13.812;2022-10-31T04:28:48;99755.56;;;9.08;100.00
39105;BME280;46464;51.154;13.812;2022-10-31T04:31:14;99756.66;;;9.02;100.00
39105;BME280;46464;51.154;13.812;2022-10-31T04:33:41;99767.44;;;9.01;100.00
39105;BME280;46464;51.154;13.812;2022-10-31T04:36:07;99755.06;;;8.97;100.00
39105;BME280;46464;51.154;13.812;2022-10-31T04:38:34;99759.66;;;8.93;100.00
39105;BME280;46464;51.154;13.812;2022-10-31T04:41:00;99759.75;;;8.90;100.00
39105;BME280;46464;51.154;13.812;2022-10-31T04:43:26;99767.06;;;8.85;100.00
39105;BME280;46464;51.154;13.812;2022-10-31T04:45:53;99760.94;;;8.81;100.00
39105;BME280;46464;51.154;13.812;2022-10-31T04:48:19;99761.88;;;8.80;100.00
39105;BME280;46464;51.154;13.812;2022-10-31T04:50:46;99768.19;;;8.78;100.00
39105;BME280;46464;51.154;13.812;2022-10-31T04:53:12;99764.69;;;8.76;100.00
39105;BME280;46464;51.154;13.812;2022-10-31T04:55:39;99766.63;;;8.72;100.00
39105;BME280;46464;51.154;13.812;2022-10-31T04:58:05;99771.22;;;8.67;100.00
39105;BME280;46464;51.154;13.812;2022-10-31T05:00:32;99776.84;;;8.59;100.00
39105;BME280;46464;51.154;13.812;2022-10-31T05:03:00;99770.81;;;8.52;100.00
39105;BME280;46464;51.154;13.812;2022-10-31T05:05:28;99767.41;;;8.46;100.00
39105;BME280;46464;51.154;13.812;2022-10-31T05:07:55;99768.47;;;8.42;100.00
39105;BME280;46464;51.154;13.812;2022-10-31T05:10:23;99769.44;;;8.39;100.00
39105;BME280;46464;51.154;13.812;2022-10-31T05:12:51;99765.91;;;8.37;100.00
39105;BME280;46464;51.154;13.812;2022-10-31T05:15:19;99768.00;;;8.27;100.00
39105;BME280;46464;51.154;13.812;2022-10-31T05:17:46;99773.53;;;8.22;100.00
39105;BME280;46464;51.154;13.812;2022-10-31T05:20:13;99770.09;;;8.17;100.00
39105;BME280;46464;51.154;13.812;2022-10-31T05:22:43;99778.28;;;8.13;100.00
39105;BME280;46464;51.154;13.812;2022-10-31T05:25:10;99785.66;;;8.04;100.00
39105;BME280;46464;51.154;13.812;2022-10-31T05:27:40;99782.19;;;8.01;100.00
39105;BME280;46464;51.154;13.812;2022-10-31T05:30:07;99773.31;;;7.99;100.00
39105;BME280;46464;51.154;13.812;2022-10-31T05:32:38;99779.16;;;7.83;100.00
39105;BME280;46464;51.154;13.812;2022-10-31T05:35:05;99781.28;;;7.72;100.00
39105;BME280;46464;51.154;13.812;2022-10-31T05:37:37;99783.28;;;7.64;100.00
39105;BME280;46464;51.154;13.812;2022-10-31T05:40:04;99786.06;;;7.61;100.00
39105;BME280;46464;51.154;13.812;2022-10-31T05:42:34;99789.66;;;7.59;100.00
39105;BME280;46464;51.154;13.812;2022-10-31T05:45:00;99789.81;;;7.53;100.00
39105;BME280;46464;51.154;13.812;2022-10-31T05:47:27;99788.28;;;7.45;100.00
39105;BME280;46464;51.154;13.812;2022-10-31T05:49:54;99792.00;;;7.39;100.00
39105;BME280;46464;51.154;13.812;2022-10-31T05:52:20;99787.88;;;7.27;100.00
39105;BME280;46464;51.154;13.812;2022-10-31T05:54:47;99781.84;;;7.19;100.00
39105;BME280;46464;51.154;13.812;2022-10-31T05:57:13;99781.16;;;7.12;100.00
39105;BME280;46464;51.154;13.812;2022-10-31T05:59:40;99798.94;;;7.11;100.00
39105;BME280;46464;51.154;13.812;2022-10-31T06:02:06;99797.19;;;7.10;100.00
39105;BME280;46464;51.154;13.812;2022-10-31T06:04:33;99799.00;;;7.10;100.00
39105;BME280;46464;51.154;13.812;2022-10-31T06:06:59;99799.00;;;7.10;100.00
39105;BME280;46464;51.154;13.812;2022-10-31T06:09:26;99805.19;;;7.12;100.00
39105;BME280;46464;51.154;13.812;2022-10-31T06:11:52;99806.91;;;7.15;100.00
39105;BME280;46464;51.154;13.812;2022-10-31T06:14:19;99812.16;;;7.18;100.00
39105;BME280;46464;51.154;13.812;2022-10-31T06:16:45;99805.03;;;7.18;100.00
39105;BME280;46464;51.154;13.812;2022-10-31T06:19:12;99811.25;;;7.19;100.00
39105;BME280;46464;51.154;13.812;2022-10-31T06:21:38;99813.88;;;7.20;100.00
39105;BME280;46464;51.154;13.812;2022-10-31T06:24:05;99813.88;;;7.20;100.00
39105;BME280;46464;51.154;13.812;2022-10-31T06:26:31;99815.56;;;7.23;100.00
39105;BME280;46464;51.154;13.812;2022-10-31T06:28:58;99820.91;;;7.24;100.00
39105;BME280;46464;51.154;13.812;2022-10-31T06:31:29;99824.34;;;7.28;100.00
39105;BME280;46464;51.154;13.812;2022-10-31T06:33:56;99826.09;;;7.31;100.00
39105;BME280;46464;51.154;13.812;2022-10-31T06:36:22;99825.13;;;7.32;100.00
39105;BME280;46464;51.154;13.812;2022-10-31T06:38:49;99828.72;;;7.32;100.00
39105;BME280;46464;51.154;13.812;2022-10-31T06:41:15;99835.94;;;7.29;100.00
39105;BME280;46464;51.154;13.812;2022-10-31T06:43:41;99832.56;;;7.20;100.00
39105;BME280;46464;51.154;13.812;2022-10-31T06:46:08;99833.47;;;7.19;100.00
39105;BME280;46464;51.154;13.812;2022-10-31T06:48:34;99835.25;;;7.20;100.00
39105;BME280;46464;51.154;13.812;2022-10-31T06:51:01;99844.00;;;7.25;100.00
39105;BME280;46464;51.154;13.812;2022-10-31T06:53:28;99843.03;;;7.30;100.00
39105;BME280;46464;51.154;13.812;2022-10-31T06:55:56;99846.34;;;7.38;100.00
39105;BME280;46464;51.154;13.812;2022-10-31T06:58:23;99860.47;;;7.45;100.00
39105;BME280;46464;51.154;13.812;2022-10-31T07:00:49;99853.97;;;7.53;100.00
39105;BME280;46464;51.154;13.812;2022-10-31T07:03:16;99850.06;;;7.67;100.00
39105;BME280;46464;51.154;13.812;2022-10-31T07:05:43;99854.28;;;7.75;100.00
39105;BME280;46464;51.154;13.812;2022-10-31T07:08:11;99851.38;;;7.83;100.00
39105;BME280;46464;51.154;13.812;2022-10-31T07:10:38;99852.97;;;7.90;100.00
39105;BME280;46464;51.154;13.812;2022-10-31T07:13:08;99864.13;;;8.05;100.00
39105;BME280;46464;51.154;13.812;2022-10-31T07:15:36;99858.41;;;8.17;100.00
39105;BME280;46464;51.154;13.812;2022-10-31T07:18:04;99859.00;;;8.27;100.00
39105;BME280;46464;51.154;13.812;2022-10-31T07:20:31;99859.63;;;8.37;100.00
39105;BME280;46464;51.154;13.812;2022-10-31T07:22:57;99857.56;;;8.47;100.00
39105;BME280;46464;51.154;13.812;2022-10-31T07:25:25;99858.09;;;8.58;100.00
39105;BME280;46464;51.154;13.812;2022-10-31T07:27:51;99857.72;;;8.70;100.00
39105;BME280;46464;51.154;13.812;2022-10-31T07:30:18;99866.19;;;8.85;100.00
39105;BME280;46464;51.154;13.812;2022-10-31T07:32:48;99863.97;;;8.99;100.00
39105;BME280;46464;51.154;13.812;2022-10-31T07:35:19;99857.16;;;9.16;100.00
39105;BME280;46464;51.154;13.812;2022-10-31T07:37:46;99863.72;;;9.32;100.00
39105;BME280;46464;51.154;13.812;2022-10-31T07:40:12;99859.56;;;9.50;100.00
39105;BME280;46464;51.154;13.812;2022-10-31T07:42:40;99862.66;;;9.63;100.00
39105;BME280;46464;51.154;13.812;2022-10-31T07:45:08;99863.91;;;9.78;100.00
39105;BME280;46464;51.154;13.812;2022-10-31T07:47:43;99867.97;;;9.90;100.00
39105;BME280;46464;51.154;13.812;2022-10-31T07:50:11;99864.91;;;10.01;100.00
39105;BME280;46464;51.154;13.812;2022-10-31T07:52:37;99866.31;;;10.11;100.00
39105;BME280;46464;51.154;13.812;2022-10-31T07:55:04;99861.41;;;10.23;100.00
39105;BME280;46464;51.154;13.812;2022-10-31T07:57:31;99865.44;;;10.34;100.00
39105;BME280;46464;51.154;13.812;2022-10-31T08:00:00;99859.63;;;10.47;100.00
39105;BME280;46464;51.154;13.812;2022-10-31T08:02:26;99871.50;;;10.63;100.00
39105;BME280;46464;51.154;13.812;2022-10-31T08:04:52;99864.72;;;10.77;100.00
39105;BME280;46464;51.154;13.812;2022-10-31T08:07:25;99867.78;;;10.90;100.00
39105;BME280;46464;51.154;13.812;2022-10-31T08:09:52;99859.09;;;11.05;100.00
39105;BME280;46464;51.154;13.812;2022-10-31T08:12:18;99868.44;;;11.17;100.00
39105;BME280;46464;51.154;13.812;2022-10-31T08:14:45;99867.84;;;11.31;100.00
39105;BME280;46464;51.154;13.812;2022-10-31T08:17:11;99869.97;;;11.45;100.00
39105;BME280;46464;51.154;13.812;2022-10-31T08:19:38;99870.03;;;11.64;100.00
39105;BME280;46464;51.154;13.812;2022-10-31T08:22:04;99876.63;;;11.77;100.00
39105;BME280;46464;51.154;13.812;2022-10-31T08:24:31;99876.94;;;11.90;100.00
39105;BME280;46464;51.154;13.812;2022-10-31T08:26:57;99877.25;;;12.05;100.00
39105;BME280;46464;51.154;13.812;2022-10-31T08:29:24;99873.25;;;12.14;100.00
39105;BME280;46464;51.154;13.812;2022-10-31T08:31:50;99871.88;;;12.24;100.00
39105;BME280;46464;51.154;13.812;2022-10-31T08:34:17;99867.69;;;12.37;100.00
39105;BME280;46464;51.154;13.812;2022-10-31T08:36:43;99862.66;;;12.49;100.00
39105;BME280;46464;51.154;13.812;2022-10-31T08:39:12;99865.38;;;12.68;100.00
39105;BME280;46464;51.154;13.812;2022-10-31T08:41:38;99865.31;;;12.87;100.00
39105;BME280;46464;51.154;13.812;2022-10-31T08:44:05;99867.19;;;13.04;100.00
39105;BME280;46464;51.154;13.812;2022-10-31T08:46:31;99868.19;;;13.20;100.00
39105;BME280;46464;51.154;13.812;2022-10-31T08:48:58;99868.41;;;13.33;100.00
39105;BME280;46464;51.154;13.812;2022-10-31T08:51:24;99870.16;;;13.53;99.30
39105;BME280;46464;51.154;13.812;2022-10-31T08:53:51;99867.84;;;13.81;98.53
39105;BME280;46464;51.154;13.812;2022-10-31T08:56:17;99867.16;;;14.11;93.69
39105;BME280;46464;51.154;13.812;2022-10-31T08:58:43;99862.94;;;14.55;96.85
39105;BME280;46464;51.154;13.812;2022-10-31T09:01:10;99868.22;;;14.74;92.47
39105;BME280;46464;51.154;13.812;2022-10-31T09:03:37;99864.47;;;14.92;89.57
39105;BME280;46464;51.154;13.812;2022-10-31T09:06:03;99864.97;;;15.15;91.38
39105;BME280;46464;51.154;13.812;2022-10-31T09:08:36;99872.84;;;15.50;93.70
39105;BME280;46464;51.154;13.812;2022-10-31T09:11:03;99868.19;;;15.82;92.21
39105;BME280;46464;51.154;13.812;2022-10-31T09:13:30;99872.09;;;15.93;90.36
39105;BME280;46464;51.154;13.812;2022-10-31T09:15:56;99873.94;;;16.07;88.23
39105;BME280;46464;51.154;13.812;2022-10-31T09:18:24;99870.88;;;16.27;88.55
39105;BME280;46464;51.154;13.812;2022-10-31T09:20:53;99871.06;;;16.39;88.55
39105;BME280;46464;51.154;13.812;2022-10-31T09:23:21;99873.09;;;16.50;87.52
39105;BME280;46464;51.154;13.812;2022-10-31T09:25:49;99879.84;;;16.71;88.98
39105;BME280;46464;51.154;13.812;2022-10-31T09:28:17;99876.25;;;16.71;85.12
39105;BME280;46464;51.154;13.812;2022-10-31T09:30:45;99881.53;;;16.87;85.10
39105;BME280;46464;51.154;13.812;2022-10-31T09:33:12;99874.88;;;16.78;82.59
39105;BME280;46464;51.154;13.812;2022-10-31T09:35:39;99879.03;;;16.84;83.70
39105;BME280;46464;51.154;13.812;2022-10-31T09:38:09;99876.44;;;16.82;79.65
39105;BME280;46464;51.154;13.812;2022-10-31T09:40:40;99876.44;;;16.82;81.59
39105;BME280;46464;51.154;13.812;2022-10-31T09:48:25;99869.44;;;16.92;79.82
39105;BME280;46464;51.154;13.812;2022-10-31T09:56:16;99879.09;;;17.11;81.54
39105;BME280;46464;51.154;13.812;2022-10-31T09:58:45;99876.94;;;17.16;79.57
39105;BME280;46464;51.154;13.812;2022-10-31T10:01:17;99871.41;;;17.18;79.13
39105;BME280;46464;51.154;13.812;2022-10-31T10:03:48;99878.38;;;17.22;80.87
39105;BME280;46464;51.154;13.812;2022-10-31T10:06:18;99878.94;;;17.27;79.36
39105;BME280;46464;51.154;13.812;2022-10-31T10:08:45;99874.94;;;17.33;77.95
39105;BME280;46464;51.154;13.812;2022-10-31T10:11:27;99871.78;;;17.39;77.86
39105;BME280;46464;51.154;13.812;2022-10-31T10:14:02;99875.69;;;17.35;78.22
39105;BME280;46464;51.154;13.812;2022-10-31T10:32:37;99855.97;;;17.99;79.58
39105;BME280;46464;51.154;13.812;2022-10-31T10:38:15;99850.75;;;18.09;75.85
39105;BME280;46464;51.154;13.812;2022-10-31T10:40:44;99848.91;;;18.09;77.37
39105;BME280;46464;51.154;13.812;2022-10-31T10:45:51;99842.69;;;18.20;77.29
39105;BME280;46464;51.154;13.812;2022-10-31T10:48:42;99850.84;;;18.33;74.42
39105;BME280;46464;51.154;13.812;2022-10-31T10:51:31;99839.63;;;18.37;75.00
39105;BME280;46464;51.154;13.812;2022-10-31T10:57:05;99840.59;;;18.49;74.26
39105;BME280;46464;51.154;13.812;2022-10-31T10:59:32;99840.59;;;18.49;76.87
39105;BME280;46464;51.154;13.812;2022-10-31T11:02:00;99840.59;;;18.49;76.73
39105;BME280;46464;51.154;13.812;2022-10-31T11:04:31;99835.38;;;18.46;76.98
39105;BME280;46464;51.154;13.812;2022-10-31T11:07:02;99828.06;;;18.60;74.88
39105;BME280;46464;51.154;13.812;2022-10-31T11:09:29;99825.22;;;18.61;74.20
39105;BME280;46464;51.154;13.812;2022-10-31T11:11:55;99821.81;;;18.70;76.87
39105;BME280;46464;51.154;13.812;2022-10-31T11:14:23;99817.63;;;18.78;73.69
39105;BME280;46464;51.154;13.812;2022-10-31T11:16:52;99824.69;;;18.80;74.38
39105;BME280;46464;51.154;13.812;2022-10-31T11:19:24;99820.34;;;18.78;74.58
39105;BME280;46464;51.154;13.812;2022-10-31T11:21:52;99815.16;;;18.75;74.72
39105;BME280;46464;51.154;13.812;2022-10-31T11:24:21;99800.44;;;18.77;75.68
39105;BME280;46464;51.154;13.812;2022-10-31T11:26:49;99809.91;;;18.84;75.25
39105;BME280;46464;51.154;13.812;2022-10-31T11:29:20;99796.63;;;18.80;75.72
39105;BME280;46464;51.154;13.812;2022-10-31T11:31:46;99801.84;;;18.83;75.39
39105;BME280;46464;51.154;13.812;2022-10-31T11:34:16;99802.38;;;18.88;76.81
39105;BME280;46464;51.154;13.812;2022-10-31T11:36:44;99794.28;;;18.99;77.79
39105;BME280;46464;51.154;13.812;2022-10-31T11:39:16;99798.28;;;19.07;73.80
39105;BME280;46464;51.154;13.812;2022-10-31T11:41:43;99794.72;;;19.17;74.04
39105;BME280;46464;51.154;13.812;2022-10-31T11:44:11;99788.28;;;19.18;73.90
39105;BME280;46464;51.154;13.812;2022-10-31T11:46:40;99786.72;;;19.27;75.73
39105;BME280;46464;51.154;13.812;2022-10-31T11:49:16;99784.91;;;19.39;76.87
39105;BME280;46464;51.154;13.812;2022-10-31T11:51:46;99790.75;;;19.46;74.73
39105;BME280;46464;51.154;13.812;2022-10-31T11:54:33;99790.25;;;19.52;73.98
39105;BME280;46464;51.154;13.812;2022-10-31T11:57:00;99782.00;;;19.54;75.46
39105;BME280;46464;51.154;13.812;2022-10-31T11:59:27;99782.59;;;19.57;72.96
39105;BME280;46464;51.154;13.812;2022-10-31T12:01:55;99784.75;;;19.65;71.30
39105;BME280;46464;51.154;13.812;2022-10-31T12:04:24;99777.69;;;19.62;71.21
39105;BME280;46464;51.154;13.812;2022-10-31T12:06:53;99780.16;;;19.65;72.25
39105;BME280;46464;51.154;13.812;2022-10-31T12:09:28;99776.66;;;19.63;71.88
39105;BME280;46464;51.154;13.812;2022-10-31T12:12:00;99770.63;;;19.71;72.16
39105;BME280;46464;51.154;13.812;2022-10-31T12:22:28;99767.28;;;19.67;71.37
39105;BME280;46464;51.154;13.812;2022-10-31T12:25:09;99757.47;;;19.65;71.18
39105;BME280;46464;51.154;13.812;2022-10-31T12:35:38;99740.25;;;19.76;70.68
39105;BME280;46464;51.154;13.812;2022-10-31T12:43:15;99745.97;;;19.73;72.00
39105;BME280;46464;51.154;13.812;2022-10-31T12:55:59;99729.25;;;19.77;70.96
39105;BME280;46464;51.154;13.812;2022-10-31T12:58:35;99724.38;;;19.70;70.75
39105;BME280;46464;51.154;13.812;2022-10-31T13:06:06;99723.19;;;19.74;71.55
39105;BME280;46464;51.154;13.812;2022-10-31T13:08:47;99715.63;;;19.77;70.79
39105;BME280;46464;51.154;13.812;2022-10-31T13:11:20;99715.34;;;19.69;72.00
39105;BME280;46464;51.154;13.812;2022-10-31T13:16:40;99708.91;;;19.70;72.69
39105;BME280;46464;51.154;13.812;2022-10-31T13:21:37;99700.97;;;19.67;72.31
39105;BME280;46464;51.154;13.812;2022-10-31T13:24:09;99701.47;;;19.61;72.44
39105;BME280;46464;51.154;13.812;2022-10-31T13:26:41;99701.38;;;19.62;71.71
39105;BME280;46464;51.154;13.812;2022-10-31T13:31:39;99696.00;;;19.61;70.79
39105;BME280;46464;51.154;13.812;2022-10-31T13:34:10;99696.00;;;19.61;70.80
39105;BME280;46464;51.154;13.812;2022-10-31T13:36:47;99689.56;;;19.50;71.11
39105;BME280;46464;51.154;13.812;2022-10-31T13:39:21;99687.59;;;19.52;70.32
39105;BME280;46464;51.154;13.812;2022-10-31T13:41:52;99685.59;;;19.55;70.03
39105;BME280;46464;51.154;13.812;2022-10-31T13:46:50;99694.16;;;19.50;70.90
39105;BME280;46464;51.154;13.812;2022-10-31T13:51:50;99692.78;;;19.44;71.33
39105;BME280;46464;51.154;13.812;2022-10-31T13:56:48;99686.09;;;19.48;71.57
39105;BME280;46464;51.154;13.812;2022-10-31T13:59:20;99681.41;;;19.50;71.65
39105;BME280;46464;51.154;13.812;2022-10-31T14:01:49;99680.66;;;19.48;72.26
39105;BME280;46464;51.154;13.812;2022-10-31T14:04:17;99673.09;;;19.41;72.82
39105;BME280;46464;51.154;13.812;2022-10-31T14:07:13;99683.97;;;19.41;72.52
39105;BME280;46464;51.154;13.812;2022-10-31T14:12:36;99677.91;;;19.37;71.69
39105;BME280;46464;51.154;13.812;2022-10-31T14:15:05;99664.06;;;19.29;72.63
39105;BME280;46464;51.154;13.812;2022-10-31T14:17:45;99668.97;;;19.24;74.55
39105;BME280;46464;51.154;13.812;2022-10-31T14:22:39;99658.06;;;19.12;76.11
39105;BME280;46464;51.154;13.812;2022-10-31T14:27:53;99652.22;;;18.94;77.07
39105;BME280;46464;51.154;13.812;2022-10-31T14:30:21;99650.66;;;18.90;77.05
39105;BME280;46464;51.154;13.812;2022-10-31T14:32:52;99650.88;;;18.76;77.45
39105;BME280;46464;51.154;13.812;2022-10-31T14:35:20;99657.03;;;18.66;77.97
39105;BME280;46464;51.154;13.812;2022-10-31T14:38:05;99650.69;;;18.54;78.35
39105;BME280;46464;51.154;13.812;2022-10-31T14:51:41;99640.13;;;18.01;79.17
39105;BME280;46464;51.154;13.812;2022-10-31T14:54:14;99637.41;;;17.88;79.28
39105;BME280;46464;51.154;13.812;2022-10-31T14:56:47;99632.88;;;17.76;79.35
39105;BME280;46464;51.154;13.812;2022-10-31T14:59:15;99641.81;;;17.65;79.62
39105;BME280;46464;51.154;13.812;2022-10-31T15:01:58;99638.13;;;17.53;79.71
39105;BME280;46464;51.154;13.812;2022-10-31T15:04:27;99629.34;;;17.37;80.35
39105;BME280;46464;51.154;13.812;2022-10-31T15:06:57;99632.28;;;17.21;80.86
39105;BME280;46464;51.154;13.812;2022-10-31T15:11:52;99626.81;;;16.82;82.22
39105;BME280;46464;51.154;13.812;2022-10-31T15:14:23;99622.09;;;16.58;82.86
39105;BME280;46464;51.154;13.812;2022-10-31T15:16:50;99627.88;;;16.39;83.46